sensor_id;sensor_type;location;lat;lon;timestamp;temperature;humidity
49184;DHT22;35021;49.214;12.270;2023-11-18T00:01:44;21.90;29.10
49184;DHT22;35021;49.214;12.270;2023-11-18T00:04:11;21.90;29.10
49184;DHT22;35021;49.214;12.270;2023-11-18T00:06:44;21.90;29.10
49184;DHT22;35021;49.214;12.270;2023-11-18T00:09:12;22.00;29.20
49184;DHT22;35021;49.214;12.270;2023-11-18T00:11:42;21.90;29.10
49184;DHT22;35021;49.214;12.270;2023-11-18T00:14:09;21.90;29.10
49184;DHT22;35021;49.214;12.270;2023-11-18T00:16:40;21.90;29.10
49184;DHT22;35021;49.214;12.270;2023-11-18T00:19:07;21.90;29.10
49184;DHT22;35021;49.214;12.270;2023-11-18T00:21:36;21.90;29.10
49184;DHT22;35021;49.214;12.270;2023-11-18T00:24:03;21.90;29.10
49184;DHT22;35021;49.214;12.270;2023-11-18T00:26:31;21.90;29.10
49184;DHT22;35021;49.214;12.270;2023-11-18T00:28:58;21.90;29.10
49184;DHT22;35021;49.214;12.270;2023-11-18T00:31:27;21.90;29.10
49184;DHT22;35021;49.214;12.270;2023-11-18T00:33:55;21.90;29.10
49184;DHT22;35021;49.214;12.270;2023-11-18T00:36:22;21.90;29.00
49184;DHT22;35021;49.214;12.270;2023-11-18T00:38:49;21.90;29.00
49184;DHT22;35021;49.214;12.270;2023-11-18T00:41:16;21.90;29.00
49184;DHT22;35021;49.214;12.270;2023-11-18T00:43:44;21.90;29.10
49184;DHT22;35021;49.214;12.270;2023-11-18T00:46:12;21.90;29.10
49184;DHT22;35021;49.214;12.270;2023-11-18T00:48:39;21.90;29.00
49184;DHT22;35021;49.214;12.270;2023-11-18T00:51:07;21.90;29.00
49184;DHT22;35021;49.214;12.270;2023-11-18T00:53:34;21.80;29.00
49184;DHT22;35021;49.214;12.270;2023-11-18T00:56:02;21.80;29.00
49184;DHT22;35021;49.214;12.270;2023-11-18T00:58:29;21.80;29.00
49184;DHT22;35021;49.214;12.270;2023-11-18T01:00:56;21.80;29.00
49184;DHT22;35021;49.214;12.270;2023-11-18T01:03:23;21.70;29.00
49184;DHT22;35021;49.214;12.270;2023-11-18T01:05:51;21.70;29.00
49184;DHT22;35021;49.214;12.270;2023-11-18T01:08:17;21.70;28.90
49184;DHT22;35021;49.214;12.270;2023-11-18T01:10:44;21.70;29.00
49184;DHT22;35021;49.214;12.270;2023-11-18T01:13:11;21.70;29.00
49184;DHT22;35021;49.214;12.270;2023-11-18T01:15:38;21.70;29.10
49184;DHT22;35021;49.214;12.270;2023-11-18T01:18:05;21.70;29.10
49184;DHT22;35021;49.214;12.270;2023-11-18T01:20:33;21.70;29.10
49184;DHT22;35021;49.214;12.270;2023-11-18T01:23:00;21.70;29.10
49184;DHT22;35021;49.214;12.270;2023-11-18T01:25:27;21.70;29.10
49184;DHT22;35021;49.214;12.270;2023-11-18T01:27:56;21.70;29.20
49184;DHT22;35021;49.214;12.270;2023-11-18T01:30:23;21.70;29.20
49184;DHT22;35021;49.214;12.270;2023-11-18T01:32:50;21.70;29.20
49184;DHT22;35021;49.214;12.270;2023-11-18T01:35:17;21.70;29.20
49184;DHT22;35021;49.214;12.270;2023-11-18T01:37:44;21.70;29.20
49184;DHT22;35021;49.214;12.270;2023-11-18T01:40:12;21.70;29.20
49184;DHT22;35021;49.214;12.270;2023-11-18T01:42:41;21.70;29.20
49184;DHT22;35021;49.214;12.270;2023-11-18T01:45:08;21.60;29.20
49184;DHT22;35021;49.214;12.270;2023-11-18T01:47:38;21.70;29.20
49184;DHT22;35021;49.214;12.270;2023-11-18T01:50:07;21.70;29.20
49184;DHT22;35021;49.214;12.270;2023-11-18T01:52:35;21.70;29.70
49184;DHT22;35021;49.214;12.270;2023-11-18T01:55:03;21.60;29.10
49184;DHT22;35021;49.214;12.270;2023-11-18T01:57:34;21.70;29.00
49184;DHT22;35021;49.214;12.270;2023-11-18T02:00:01;21.60;29.00
49184;DHT22;35021;49.214;12.270;2023-11-18T02:02:33;21.60;28.90
49184;DHT22;35021;49.214;12.270;2023-11-18T02:05:01;21.60;28.90
49184;DHT22;35021;49.214;12.270;2023-11-18T02:07:29;21.60;29.00
49184;DHT22;35021;49.214;12.270;2023-11-18T02:09:56;21.60;29.00
49184;DHT22;35021;49.214;12.270;2023-11-18T02:15:10;21.60;29.00
49184;DHT22;35021;49.214;12.270;2023-11-18T02:17:39;21.60;29.00
49184;DHT22;35021;49.214;12.270;2023-11-18T02:20:09;21.60;29.00
49184;DHT22;35021;49.214;12.270;2023-11-18T02:22:41;21.60;29.00
49184;DHT22;35021;49.214;12.270;2023-11-18T02:25:09;21.60;29.10
49184;DHT22;35021;49.214;12.270;2023-11-18T02:27:37;21.60;29.10
49184;DHT22;35021;49.214;12.270;2023-11-18T02:30:04;21.60;29.10
49184;DHT22;35021;49.214;12.270;2023-11-18T02:32:34;21.60;29.10
49184;DHT22;35021;49.214;12.270;2023-11-18T02:35:09;21.60;29.10
49184;DHT22;35021;49.214;12.270;2023-11-18T02:37:41;21.60;29.10
49184;DHT22;35021;49.214;12.270;2023-11-18T02:40:11;21.60;29.10
49184;DHT22;35021;49.214;12.270;2023-11-18T02:42:42;21.50;29.10
49184;DHT22;35021;49.214;12.270;2023-11-18T02:45:10;21.50;29.10
49184;DHT22;35021;49.214;12.270;2023-11-18T02:47:39;21.50;29.10
49184;DHT22;35021;49.214;12.270;2023-11-18T02:50:06;21.50;29.10
49184;DHT22;35021;49.214;12.270;2023-11-18T02:52:36;21.50;29.10
49184;DHT22;35021;49.214;12.270;2023-11-18T02:55:05;21.40;29.10
49184;DHT22;35021;49.214;12.270;2023-11-18T02:57:33;21.40;29.10
49184;DHT22;35021;49.214;12.270;2023-11-18T03:00:00;21.40;29.10
49184;DHT22;35021;49.214;12.270;2023-11-18T03:02:29;21.40;29.10
49184;DHT22;35021;49.214;12.270;2023-11-18T03:04:57;21.40;29.10
49184;DHT22;35021;49.214;12.270;2023-11-18T03:07:27;21.40;29.10
49184;DHT22;35021;49.214;12.270;2023-11-18T03:09:55;21.40;29.10
49184;DHT22;35021;49.214;12.270;2023-11-18T03:12:26;21.40;29.10
49184;DHT22;35021;49.214;12.270;2023-11-18T03:14:54;21.40;29.10
49184;DHT22;35021;49.214;12.270;2023-11-18T03:17:22;21.30;29.10
49184;DHT22;35021;49.214;12.270;2023-11-18T03:19:49;21.30;29.00
49184;DHT22;35021;49.214;12.270;2023-11-18T03:22:17;21.30;29.00
49184;DHT22;35021;49.214;12.270;2023-11-18T03:24:44;21.30;29.00
49184;DHT22;35021;49.214;12.270;2023-11-18T03:27:11;21.30;29.00
49184;DHT22;35021;49.214;12.270;2023-11-18T03:29:38;21.30;29.00
49184;DHT22;35021;49.214;12.270;2023-11-18T03:32:06;21.30;29.00
49184;DHT22;35021;49.214;12.270;2023-11-18T03:34:33;21.30;29.00
49184;DHT22;35021;49.214;12.270;2023-11-18T03:37:00;21.30;29.00
49184;DHT22;35021;49.214;12.270;2023-11-18T03:39:28;21.30;29.00
49184;DHT22;35021;49.214;12.270;2023-11-18T03:41:55;21.30;29.00
49184;DHT22;35021;49.214;12.270;2023-11-18T03:44:24;21.30;29.00
49184;DHT22;35021;49.214;12.270;2023-11-18T03:46:51;21.30;29.00
49184;DHT22;35021;49.214;12.270;2023-11-18T03:49:18;21.30;29.00
49184;DHT22;35021;49.214;12.270;2023-11-18T03:51:46;21.30;29.00
49184;DHT22;35021;49.214;12.270;2023-11-18T03:54:14;21.30;29.00
49184;DHT22;35021;49.214;12.270;2023-11-18T03:56:40;21.30;29.00
49184;DHT22;35021;49.214;12.270;2023-11-18T03:59:07;21.30;29.10
49184;DHT22;35021;49.214;12.270;2023-11-18T04:01:36;21.30;29.10
49184;DHT22;35021;49.214;12.270;2023-11-18T04:04:03;21.30;29.70
49184;DHT22;35021;49.214;12.270;2023-11-18T04:06:31;21.30;29.10
49184;DHT22;35021;49.214;12.270;2023-11-18T04:08:58;21.30;29.10
49184;DHT22;35021;49.214;12.270;2023-11-18T04:11:25;21.30;29.20
49184;DHT22;35021;49.214;12.270;2023-11-18T04:13:52;21.30;29.20
49184;DHT22;35021;49.214;12.270;2023-11-18T04:16:19;21.30;29.20
49184;DHT22;35021;49.214;12.270;2023-11-18T04:18:46;21.20;29.20
49184;DHT22;35021;49.214;12.270;2023-11-18T04:21:13;21.20;29.20
49184;DHT22;35021;49.214;12.270;2023-11-18T04:23:41;21.20;29.20
49184;DHT22;35021;49.214;12.270;2023-11-18T04:26:08;21.20;29.10
49184;DHT22;35021;49.214;12.270;2023-11-18T04:28:35;21.20;29.20
49184;DHT22;35021;49.214;12.270;2023-11-18T04:31:03;21.20;29.10
49184;DHT22;35021;49.214;12.270;2023-11-18T04:33:30;21.20;29.20
49184;DHT22;35021;49.214;12.270;2023-11-18T04:35:57;21.10;29.30
49184;DHT22;35021;49.214;12.270;2023-11-18T04:38:24;21.10;29.40
49184;DHT22;35021;49.214;12.270;2023-11-18T04:40:52;21.10;29.40
49184;DHT22;35021;49.214;12.270;2023-11-18T04:43:21;21.10;29.30
49184;DHT22;35021;49.214;12.270;2023-11-18T04:46:05;21.10;29.40
49184;DHT22;35021;49.214;12.270;2023-11-18T04:48:32;21.10;29.40
49184;DHT22;35021;49.214;12.270;2023-11-18T04:51:00;21.10;29.40
49184;DHT22;35021;49.214;12.270;2023-11-18T04:53:27;21.10;29.40
49184;DHT22;35021;49.214;12.270;2023-11-18T04:55:54;21.10;29.40
49184;DHT22;35021;49.214;12.270;2023-11-18T04:58:21;21.10;29.40
49184;DHT22;35021;49.214;12.270;2023-11-18T05:00:48;21.20;29.50
49184;DHT22;35021;49.214;12.270;2023-11-18T05:03:16;21.20;29.40
49184;DHT22;35021;49.214;12.270;2023-11-18T05:05:43;21.30;29.40
49184;DHT22;35021;49.214;12.270;2023-11-18T05:08:20;21.30;29.40
49184;DHT22;35021;49.214;12.270;2023-11-18T05:10:47;21.40;29.40
49184;DHT22;35021;49.214;12.270;2023-11-18T05:13:15;21.50;29.30
49184;DHT22;35021;49.214;12.270;2023-11-18T05:15:43;21.50;29.30
49184;DHT22;35021;49.214;12.270;2023-11-18T05:18:12;21.60;29.30
49184;DHT22;35021;49.214;12.270;2023-11-18T05:20:42;21.70;29.30
49184;DHT22;35021;49.214;12.270;2023-11-18T05:23:09;21.70;29.30
49184;DHT22;35021;49.214;12.270;2023-11-18T05:25:39;21.70;29.30
49184;DHT22;35021;49.214;12.270;2023-11-18T05:28:06;21.80;29.30
49184;DHT22;35021;49.214;12.270;2023-11-18T05:30:36;21.70;29.30
49184;DHT22;35021;49.214;12.270;2023-11-18T05:33:04;21.70;29.30
49184;DHT22;35021;49.214;12.270;2023-11-18T05:35:36;21.70;29.30
49184;DHT22;35021;49.214;12.270;2023-11-18T05:38:03;21.70;29.40
49184;DHT22;35021;49.214;12.270;2023-11-18T05:40:31;21.70;29.40
49184;DHT22;35021;49.214;12.270;2023-11-18T05:42:58;21.70;29.40
49184;DHT22;35021;49.214;12.270;2023-11-18T05:45:25;21.70;29.40
49184;DHT22;35021;49.214;12.270;2023-11-18T05:47:58;21.70;29.30
49184;DHT22;35021;49.214;12.270;2023-11-18T05:50:25;21.70;29.30
49184;DHT22;35021;49.214;12.270;2023-11-18T05:52:53;21.80;29.20
49184;DHT22;35021;49.214;12.270;2023-11-18T05:55:20;21.80;29.20
49184;DHT22;35021;49.214;12.270;2023-11-18T05:57:47;21.80;29.10
49184;DHT22;35021;49.214;12.270;2023-11-18T06:00:14;21.90;29.10
49184;DHT22;35021;49.214;12.270;2023-11-18T06:02:51;21.90;29.10
49184;DHT22;35021;49.214;12.270;2023-11-18T06:05:18;22.00;29.20
49184;DHT22;35021;49.214;12.270;2023-11-18T06:07:45;21.90;29.00
49184;DHT22;35021;49.214;12.270;2023-11-18T06:10:14;22.00;29.10
49184;DHT22;35021;49.214;12.270;2023-11-18T06:12:41;21.90;29.00
49184;DHT22;35021;49.214;12.270;2023-11-18T06:15:08;21.90;29.00
49184;DHT22;35021;49.214;12.270;2023-11-18T06:17:36;21.80;29.10
49184;DHT22;35021;49.214;12.270;2023-11-18T06:20:04;21.70;29.10
49184;DHT22;35021;49.214;12.270;2023-11-18T06:22:33;21.60;29.20
49184;DHT22;35021;49.214;12.270;2023-11-18T06:25:00;21.60;29.20
49184;DHT22;35021;49.214;12.270;2023-11-18T06:27:29;21.60;29.30
49184;DHT22;35021;49.214;12.270;2023-11-18T06:29:56;21.60;29.30
49184;DHT22;35021;49.214;12.270;2023-11-18T06:32:23;21.60;29.30
49184;DHT22;35021;49.214;12.270;2023-11-18T06:34:52;21.60;29.40
49184;DHT22;35021;49.214;12.270;2023-11-18T06:37:20;21.60;29.30
49184;DHT22;35021;49.214;12.270;2023-11-18T06:39:47;21.70;29.30
49184;DHT22;35021;49.214;12.270;2023-11-18T06:42:15;21.70;29.30
49184;DHT22;35021;49.214;12.270;2023-11-18T06:44:42;21.70;29.30
49184;DHT22;35021;49.214;12.270;2023-11-18T06:47:09;21.70;29.30
49184;DHT22;35021;49.214;12.270;2023-11-18T06:49:39;21.70;29.30
49184;DHT22;35021;49.214;12.270;2023-11-18T06:52:08;21.70;29.60
49184;DHT22;35021;49.214;12.270;2023-11-18T06:54:41;21.60;29.30
49184;DHT22;35021;49.214;12.270;2023-11-18T06:57:08;21.60;29.30
49184;DHT22;35021;49.214;12.270;2023-11-18T06:59:35;21.50;29.30
49184;DHT22;35021;49.214;12.270;2023-11-18T07:02:02;21.50;29.30
49184;DHT22;35021;49.214;12.270;2023-11-18T07:04:33;21.50;29.40
49184;DHT22;35021;49.214;12.270;2023-11-18T07:07:00;21.40;29.30
49184;DHT22;35021;49.214;12.270;2023-11-18T07:09:28;21.40;29.30
49184;DHT22;35021;49.214;12.270;2023-11-18T07:11:56;21.40;29.30
49184;DHT22;35021;49.214;12.270;2023-11-18T07:14:23;21.50;29.30
49184;DHT22;35021;49.214;12.270;2023-11-18T07:16:50;21.50;29.30
49184;DHT22;35021;49.214;12.270;2023-11-18T07:19:17;21.50;29.30
49184;DHT22;35021;49.214;12.270;2023-11-18T07:21:48;21.50;29.20
49184;DHT22;35021;49.214;12.270;2023-11-18T07:24:16;21.60;29.30
49184;DHT22;35021;49.214;12.270;2023-11-18T07:26:44;21.60;29.20
49184;DHT22;35021;49.214;12.270;2023-11-18T07:29:12;21.70;29.20
49184;DHT22;35021;49.214;12.270;2023-11-18T07:31:39;21.70;29.10
49184;DHT22;35021;49.214;12.270;2023-11-18T07:34:06;21.70;29.10
49184;DHT22;35021;49.214;12.270;2023-11-18T07:36:33;21.70;29.10
49184;DHT22;35021;49.214;12.270;2023-11-18T07:39:03;21.70;29.10
49184;DHT22;35021;49.214;12.270;2023-11-18T07:41:31;21.70;29.10
49184;DHT22;35021;49.214;12.270;2023-11-18T07:44:00;21.60;29.10
49184;DHT22;35021;49.214;12.270;2023-11-18T07:46:28;21.60;29.10
49184;DHT22;35021;49.214;12.270;2023-11-18T07:48:58;21.50;29.20
49184;DHT22;35021;49.214;12.270;2023-11-18T07:51:27;21.50;29.30
49184;DHT22;35021;49.214;12.270;2023-11-18T07:53:54;21.40;29.30
49184;DHT22;35021;49.214;12.270;2023-11-18T07:56:21;21.50;29.20
49184;DHT22;35021;49.214;12.270;2023-11-18T07:58:51;21.40;29.10
49184;DHT22;35021;49.214;12.270;2023-11-18T08:01:20;21.50;29.10
49184;DHT22;35021;49.214;12.270;2023-11-18T08:03:50;21.50;29.10
49184;DHT22;35021;49.214;12.270;2023-11-18T08:06:19;21.50;29.20
49184;DHT22;35021;49.214;12.270;2023-11-18T08:08:47;21.50;29.20
49184;DHT22;35021;49.214;12.270;2023-11-18T08:11:15;21.50;29.20
49184;DHT22;35021;49.214;12.270;2023-11-18T08:13:42;21.60;29.30
49184;DHT22;35021;49.214;12.270;2023-11-18T08:16:10;21.60;29.30
49184;DHT22;35021;49.214;12.270;2023-11-18T08:18:39;21.70;29.30
49184;DHT22;35021;49.214;12.270;2023-11-18T08:21:06;21.70;29.30
49184;DHT22;35021;49.214;12.270;2023-11-18T08:23:34;21.70;29.20
49184;DHT22;35021;49.214;12.270;2023-11-18T08:26:01;21.60;29.20
49184;DHT22;35021;49.214;12.270;2023-11-18T08:28:29;21.60;29.20
49184;DHT22;35021;49.214;12.270;2023-11-18T08:30:55;21.60;29.30
49184;DHT22;35021;49.214;12.270;2023-11-18T08:33:22;21.60;29.30
49184;DHT22;35021;49.214;12.270;2023-11-18T08:35:52;21.50;29.40
49184;DHT22;35021;49.214;12.270;2023-11-18T08:38:19;21.50;29.40
49184;DHT22;35021;49.214;12.270;2023-11-18T08:40:47;21.40;29.50
49184;DHT22;35021;49.214;12.270;2023-11-18T08:43:15;21.40;29.60
49184;DHT22;35021;49.214;12.270;2023-11-18T08:45:43;21.40;29.50
49184;DHT22;35021;49.214;12.270;2023-11-18T08:48:11;21.40;29.50
49184;DHT22;35021;49.214;12.270;2023-11-18T08:50:38;21.40;29.50
49184;DHT22;35021;49.214;12.270;2023-11-18T08:53:10;21.50;29.30
49184;DHT22;35021;49.214;12.270;2023-11-18T08:55:39;21.50;29.10
49184;DHT22;35021;49.214;12.270;2023-11-18T08:58:08;21.50;29.00
49184;DHT22;35021;49.214;12.270;2023-11-18T09:00:56;21.50;29.00
49184;DHT22;35021;49.214;12.270;2023-11-18T09:03:32;21.50;28.90
49184;DHT22;35021;49.214;12.270;2023-11-18T09:06:03;21.50;28.90
49184;DHT22;35021;49.214;12.270;2023-11-18T09:11:02;21.60;29.00
49184;DHT22;35021;49.214;12.270;2023-11-18T09:13:33;21.60;29.00
49184;DHT22;35021;49.214;12.270;2023-11-18T09:16:02;21.60;29.00
49184;DHT22;35021;49.214;12.270;2023-11-18T09:18:30;21.60;29.10
49184;DHT22;35021;49.214;12.270;2023-11-18T09:21:01;21.60;29.10
49184;DHT22;35021;49.214;12.270;2023-11-18T09:23:29;21.50;29.10
49184;DHT22;35021;49.214;12.270;2023-11-18T09:25:56;21.50;29.10
49184;DHT22;35021;49.214;12.270;2023-11-18T09:28:23;21.50;29.20
49184;DHT22;35021;49.214;12.270;2023-11-18T09:30:51;21.40;29.40
49184;DHT22;35021;49.214;12.270;2023-11-18T09:33:25;21.40;29.50
49184;DHT22;35021;49.214;12.270;2023-11-18T09:35:52;21.40;29.60
49184;DHT22;35021;49.214;12.270;2023-11-18T09:40:55;21.50;29.40
49184;DHT22;35021;49.214;12.270;2023-11-18T09:43:24;21.50;29.40
49184;DHT22;35021;49.214;12.270;2023-11-18T09:45:54;21.50;29.50
49184;DHT22;35021;49.214;12.270;2023-11-18T09:48:22;21.60;30.20
49184;DHT22;35021;49.214;12.270;2023-11-18T09:50:52;21.70;29.60
49184;DHT22;35021;49.214;12.270;2023-11-18T09:53:20;21.80;29.60
49184;DHT22;35021;49.214;12.270;2023-11-18T09:56:07;21.80;29.40
49184;DHT22;35021;49.214;12.270;2023-11-18T09:58:37;21.90;29.40
49184;DHT22;35021;49.214;12.270;2023-11-18T10:01:08;21.90;29.40
49184;DHT22;35021;49.214;12.270;2023-11-18T10:03:43;22.00;29.40
49184;DHT22;35021;49.214;12.270;2023-11-18T10:06:13;22.00;29.40
49184;DHT22;35021;49.214;12.270;2023-11-18T10:08:51;22.00;29.40
49184;DHT22;35021;49.214;12.270;2023-11-18T10:11:22;22.00;29.50
49184;DHT22;35021;49.214;12.270;2023-11-18T10:13:50;22.00;29.60
49184;DHT22;35021;49.214;12.270;2023-11-18T10:16:17;22.00;29.80
49184;DHT22;35021;49.214;12.270;2023-11-18T10:18:45;22.00;29.80
49184;DHT22;35021;49.214;12.270;2023-11-18T10:21:16;22.00;29.90
49184;DHT22;35021;49.214;12.270;2023-11-18T10:23:58;22.00;30.00
49184;DHT22;35021;49.214;12.270;2023-11-18T10:26:29;22.00;30.00
49184;DHT22;35021;49.214;12.270;2023-11-18T10:29:02;22.00;30.00
49184;DHT22;35021;49.214;12.270;2023-11-18T10:31:29;22.10;30.10
49184;DHT22;35021;49.214;12.270;2023-11-18T10:33:56;22.10;30.10
49184;DHT22;35021;49.214;12.270;2023-11-18T10:36:24;22.20;30.20
49184;DHT22;35021;49.214;12.270;2023-11-18T10:38:53;22.20;30.90
49184;DHT22;35021;49.214;12.270;2023-11-18T10:41:23;22.30;30.30
49184;DHT22;35021;49.214;12.270;2023-11-18T10:44:06;22.30;30.30
49184;DHT22;35021;49.214;12.270;2023-11-18T10:46:34;22.30;30.40
49184;DHT22;35021;49.214;12.270;2023-11-18T10:49:03;22.40;30.50
49184;DHT22;35021;49.214;12.270;2023-11-18T10:51:36;22.40;30.60
49184;DHT22;35021;49.214;12.270;2023-11-18T10:54:06;22.50;30.60
49184;DHT22;35021;49.214;12.270;2023-11-18T10:56:47;22.50;30.60
49184;DHT22;35021;49.214;12.270;2023-11-18T10:59:14;22.60;30.60
49184;DHT22;35021;49.214;12.270;2023-11-18T11:01:43;22.60;30.60
49184;DHT22;35021;49.214;12.270;2023-11-18T11:04:14;22.70;30.60
49184;DHT22;35021;49.214;12.270;2023-11-18T11:06:44;22.70;30.60
49184;DHT22;35021;49.214;12.270;2023-11-18T11:09:24;22.70;30.60
49184;DHT22;35021;49.214;12.270;2023-11-18T11:11:55;22.80;30.60
49184;DHT22;35021;49.214;12.270;2023-11-18T11:14:27;22.80;30.60
49184;DHT22;35021;49.214;12.270;2023-11-18T11:17:05;22.90;30.60
49184;DHT22;35021;49.214;12.270;2023-11-18T11:19:59;22.90;30.60
49184;DHT22;35021;49.214;12.270;2023-11-18T11:22:38;23.00;30.60
49184;DHT22;35021;49.214;12.270;2023-11-18T11:25:16;23.00;30.50
49184;DHT22;35021;49.214;12.270;2023-11-18T11:28:00;23.10;30.50
49184;DHT22;35021;49.214;12.270;2023-11-18T11:30:33;23.10;30.50
49184;DHT22;35021;49.214;12.270;2023-11-18T11:33:09;23.20;30.60
49184;DHT22;35021;49.214;12.270;2023-11-18T11:35:40;23.20;30.50
49184;DHT22;35021;49.214;12.270;2023-11-18T11:38:14;23.30;30.60
49184;DHT22;35021;49.214;12.270;2023-11-18T11:40:43;23.30;30.60
49184;DHT22;35021;49.214;12.270;2023-11-18T11:43:13;23.30;30.60
49184;DHT22;35021;49.214;12.270;2023-11-18T11:45:50;23.40;30.60
49184;DHT22;35021;49.214;12.270;2023-11-18T11:48:23;23.40;30.60
49184;DHT22;35021;49.214;12.270;2023-11-18T11:53:22;23.50;30.50
49184;DHT22;35021;49.214;12.270;2023-11-18T11:55:53;23.60;30.40
49184;DHT22;35021;49.214;12.270;2023-11-18T12:00:54;23.70;30.30
49184;DHT22;35021;49.214;12.270;2023-11-18T12:03:21;23.70;30.10
49184;DHT22;35021;49.214;12.270;2023-11-18T12:05:49;23.70;30.20
49184;DHT22;35021;49.214;12.270;2023-11-18T12:08:22;23.70;30.10
49184;DHT22;35021;49.214;12.270;2023-11-18T12:10:53;23.70;30.10
49184;DHT22;35021;49.214;12.270;2023-11-18T12:13:21;23.70;30.10
49184;DHT22;35021;49.214;12.270;2023-11-18T12:15:52;23.60;30.10
49184;DHT22;35021;49.214;12.270;2023-11-18T12:18:29;23.60;30.20
49184;DHT22;35021;49.214;12.270;2023-11-18T12:20:58;23.50;30.20
49184;DHT22;35021;49.214;12.270;2023-11-18T12:23:29;23.40;30.30
49184;DHT22;35021;49.214;12.270;2023-11-18T12:25:57;23.40;30.40
49184;DHT22;35021;49.214;12.270;2023-11-18T12:28:26;23.30;30.50
49184;DHT22;35021;49.214;12.270;2023-11-18T12:30:54;23.20;30.60
49184;DHT22;35021;49.214;12.270;2023-11-18T12:33:24;23.10;30.70
49184;DHT22;35021;49.214;12.270;2023-11-18T12:41:08;22.90;31.00
49184;DHT22;35021;49.214;12.270;2023-11-18T12:46:36;22.80;31.00
49184;DHT22;35021;49.214;12.270;2023-11-18T12:49:10;22.80;31.10
49184;DHT22;35021;49.214;12.270;2023-11-18T12:51:42;22.70;31.10
49184;DHT22;35021;49.214;12.270;2023-11-18T12:54:11;22.70;31.00
49184;DHT22;35021;49.214;12.270;2023-11-18T12:56:39;22.70;31.00
49184;DHT22;35021;49.214;12.270;2023-11-18T12:59:06;22.60;31.10
49184;DHT22;35021;49.214;12.270;2023-11-18T13:01:33;22.60;31.10
49184;DHT22;35021;49.214;12.270;2023-11-18T13:04:03;22.60;31.20
49184;DHT22;35021;49.214;12.270;2023-11-18T13:06:30;22.50;31.20
49184;DHT22;35021;49.214;12.270;2023-11-18T13:08:57;22.50;31.30
49184;DHT22;35021;49.214;12.270;2023-11-18T13:11:25;22.40;31.30
49184;DHT22;35021;49.214;12.270;2023-11-18T13:13:53;22.40;31.40
49184;DHT22;35021;49.214;12.270;2023-11-18T13:16:21;22.40;31.40
49184;DHT22;35021;49.214;12.270;2023-11-18T13:18:48;22.50;31.30
49184;DHT22;35021;49.214;12.270;2023-11-18T13:21:20;22.60;31.20
49184;DHT22;35021;49.214;12.270;2023-11-18T13:23:51;22.60;31.10
49184;DHT22;35021;49.214;12.270;2023-11-18T13:26:19;22.70;31.10
49184;DHT22;35021;49.214;12.270;2023-11-18T13:28:47;22.80;31.00
49184;DHT22;35021;49.214;12.270;2023-11-18T13:31:16;22.80;30.90
49184;DHT22;35021;49.214;12.270;2023-11-18T13:33:43;22.90;30.90
49184;DHT22;35021;49.214;12.270;2023-11-18T13:36:11;23.00;30.90
49184;DHT22;35021;49.214;12.270;2023-11-18T13:38:38;23.10;30.80
49184;DHT22;35021;49.214;12.270;2023-11-18T13:41:07;23.10;30.80
49184;DHT22;35021;49.214;12.270;2023-11-18T13:43:45;23.20;30.80
49184;DHT22;35021;49.214;12.270;2023-11-18T13:46:14;23.20;30.70
49184;DHT22;35021;49.214;12.270;2023-11-18T13:48:42;23.30;30.70
49184;DHT22;35021;49.214;12.270;2023-11-18T13:51:13;23.40;30.60
49184;DHT22;35021;49.214;12.270;2023-11-18T13:53:45;23.40;30.50
49184;DHT22;35021;49.214;12.270;2023-11-18T13:56:14;23.40;30.50
49184;DHT22;35021;49.214;12.270;2023-11-18T13:58:42;23.50;30.60
49184;DHT22;35021;49.214;12.270;2023-11-18T14:01:10;23.40;30.50
49184;DHT22;35021;49.214;12.270;2023-11-18T14:03:39;23.40;30.60
49184;DHT22;35021;49.214;12.270;2023-11-18T14:06:07;23.40;30.60
49184;DHT22;35021;49.214;12.270;2023-11-18T14:08:37;23.40;30.70
49184;DHT22;35021;49.214;12.270;2023-11-18T14:11:05;23.30;30.70
49184;DHT22;35021;49.214;12.270;2023-11-18T14:13:42;23.40;30.80
49184;DHT22;35021;49.214;12.270;2023-11-18T14:16:09;23.30;30.90
49184;DHT22;35021;49.214;12.270;2023-11-18T14:18:37;23.30;30.90
49184;DHT22;35021;49.214;12.270;2023-11-18T14:21:08;23.20;30.90
49184;DHT22;35021;49.214;12.270;2023-11-18T14:23:36;23.20;31.00
49184;DHT22;35021;49.214;12.270;2023-11-18T14:26:05;23.20;31.00
49184;DHT22;35021;49.214;12.270;2023-11-18T14:28:34;23.10;31.00
49184;DHT22;35021;49.214;12.270;2023-11-18T14:31:02;23.10;31.10
49184;DHT22;35021;49.214;12.270;2023-11-18T14:33:34;23.10;31.30
49184;DHT22;35021;49.214;12.270;2023-11-18T14:36:01;23.00;31.40
49184;DHT22;35021;49.214;12.270;2023-11-18T14:38:30;23.00;31.50
49184;DHT22;35021;49.214;12.270;2023-11-18T14:40:57;22.90;31.60
49184;DHT22;35021;49.214;12.270;2023-11-18T14:43:25;23.00;31.70
49184;DHT22;35021;49.214;12.270;2023-11-18T14:45:53;23.00;31.70
49184;DHT22;35021;49.214;12.270;2023-11-18T14:48:20;23.00;31.70
49184;DHT22;35021;49.214;12.270;2023-11-18T14:50:47;23.10;31.70
49184;DHT22;35021;49.214;12.270;2023-11-18T14:53:14;23.10;31.70
49184;DHT22;35021;49.214;12.270;2023-11-18T14:55:41;23.20;31.70
49184;DHT22;35021;49.214;12.270;2023-11-18T14:58:12;23.20;31.60
49184;DHT22;35021;49.214;12.270;2023-11-18T15:00:40;23.20;31.40
49184;DHT22;35021;49.214;12.270;2023-11-18T15:03:07;23.30;32.20
49184;DHT22;35021;49.214;12.270;2023-11-18T15:05:34;23.20;31.40
49184;DHT22;35021;49.214;12.270;2023-11-18T15:08:01;23.20;31.40
49184;DHT22;35021;49.214;12.270;2023-11-18T15:10:29;23.20;31.40
49184;DHT22;35021;49.214;12.270;2023-11-18T15:12:57;23.20;31.50
49184;DHT22;35021;49.214;12.270;2023-11-18T15:15:30;23.20;31.60
49184;DHT22;35021;49.214;12.270;2023-11-18T15:18:02;23.20;31.60
49184;DHT22;35021;49.214;12.270;2023-11-18T15:20:35;23.20;31.60
49184;DHT22;35021;49.214;12.270;2023-11-18T15:23:03;23.20;31.60
49184;DHT22;35021;49.214;12.270;2023-11-18T15:25:31;23.20;31.60
49184;DHT22;35021;49.214;12.270;2023-11-18T15:27:58;23.20;31.60
49184;DHT22;35021;49.214;12.270;2023-11-18T15:30:25;23.20;31.60
49184;DHT22;35021;49.214;12.270;2023-11-18T15:32:53;23.20;31.50
49184;DHT22;35021;49.214;12.270;2023-11-18T15:35:21;23.30;31.60
49184;DHT22;35021;49.214;12.270;2023-11-18T15:37:48;23.30;31.60
49184;DHT22;35021;49.214;12.270;2023-11-18T15:40:17;23.30;31.50
49184;DHT22;35021;49.214;12.270;2023-11-18T15:42:47;23.40;31.50
49184;DHT22;35021;49.214;12.270;2023-11-18T15:45:16;23.40;31.50
49184;DHT22;35021;49.214;12.270;2023-11-18T15:47:43;23.40;31.40